sensor_id;sensor_type;location;lat;lon;timestamp;P1;durP1;ratioP1;P2;durP2;ratioP2
11620;SDS011;5866;49.094;11.900;2022-09-12T00:00:14;69.10;;;25.45;;
11620;SDS011;5866;49.094;11.900;2022-09-12T00:02:42;39.63;;;36.45;;
11620;SDS011;5866;49.094;11.900;2022-09-12T00:05:09;36.67;;;33.25;;
11620;SDS011;5866;49.094;11.900;2022-09-12T00:07:37;34.70;;;31.95;;
11620;SDS011;5866;49.094;11.900;2022-09-12T00:10:05;23.70;;;21.83;;
11620;SDS011;5866;49.094;11.900;2022-09-12T00:12:32;15.27;;;13.82;;
11620;SDS011;5866;49.094;11.900;2022-09-12T00:15:00;28.45;;;26.10;;
11620;SDS011;5866;49.094;11.900;2022-09-12T00:17:29;43.83;;;31.02;;
11620;SDS011;5866;49.094;11.900;2022-09-12T00:19:56;283.08;;;25.50;;
11620;SDS011;5866;49.094;11.900;2022-09-12T00:22:24;281.20;;;24.33;;
11620;SDS011;5866;49.094;11.900;2022-09-12T00:24:51;361.90;;;31.58;;
11620;SDS011;5866;49.094;11.900;2022-09-12T00:27:19;172.80;;;19.70;;
11620;SDS011;5866;49.094;11.900;2022-09-12T00:29:46;189.07;;;24.75;;
11620;SDS011;5866;49.094;11.900;2022-09-12T00:32:14;120.45;;;19.25;;
11620;SDS011;5866;49.094;11.900;2022-09-12T00:34:43;120.65;;;20.75;;
11620;SDS011;5866;49.094;11.900;2022-09-12T00:37:10;47.00;;;15.18;;
11620;SDS011;5866;49.094;11.900;2022-09-12T00:39:38;22.27;;;14.82;;
11620;SDS011;5866;49.094;11.900;2022-09-12T00:42:05;17.42;;;14.85;;
11620;SDS011;5866;49.094;11.900;2022-09-12T00:44:43;17.02;;;14.80;;
11620;SDS011;5866;49.094;11.900;2022-09-12T00:47:14;16.23;;;14.68;;
11620;SDS011;5866;49.094;11.900;2022-09-12T00:49:46;15.38;;;13.98;;
11620;SDS011;5866;49.094;11.900;2022-09-12T00:52:18;15.95;;;14.45;;
11620;SDS011;5866;49.094;11.900;2022-09-12T00:54:51;16.95;;;15.38;;
11620;SDS011;5866;49.094;11.900;2022-09-12T00:57:23;17.92;;;16.10;;
11620;SDS011;5866;49.094;11.900;2022-09-12T00:59:55;19.48;;;17.55;;
11620;SDS011;5866;49.094;11.900;2022-09-12T01:02:25;17.90;;;16.08;;
11620;SDS011;5866;49.094;11.900;2022-09-12T01:04:55;20.58;;;16.20;;
11620;SDS011;5866;49.094;11.900;2022-09-12T01:07:23;22.63;;;17.33;;
11620;SDS011;5866;49.094;11.900;2022-09-12T01:09:51;23.95;;;17.02;;
11620;SDS011;5866;49.094;11.900;2022-09-12T01:12:18;20.20;;;17.02;;
11620;SDS011;5866;49.094;11.900;2022-09-12T01:14:46;20.60;;;18.05;;
11620;SDS011;5866;49.094;11.900;2022-09-12T01:17:14;21.02;;;18.20;;
11620;SDS011;5866;49.094;11.900;2022-09-12T01:22:52;299.50;;;58.78;;
11620;SDS011;5866;49.094;11.900;2022-09-12T01:25:37;98.53;;;37.45;;
11620;SDS011;5866;49.094;11.900;2022-09-12T01:28:28;57.00;;;53.00;;
11620;SDS011;5866;49.094;11.900;2022-09-12T01:31:14;40.65;;;37.80;;
11620;SDS011;5866;49.094;11.900;2022-09-12T01:33:50;38.15;;;35.20;;
11620;SDS011;5866;49.094;11.900;2022-09-12T01:36:31;49.50;;;45.78;;
11620;SDS011;5866;49.094;11.900;2022-09-12T01:39:04;48.05;;;44.53;;
11620;SDS011;5866;49.094;11.900;2022-09-12T01:41:39;51.00;;;47.47;;
11620;SDS011;5866;49.094;11.900;2022-09-12T01:44:18;25.15;;;22.50;;
11620;SDS011;5866;49.094;11.900;2022-09-12T01:46:54;25.05;;;22.70;;
11620;SDS011;5866;49.094;11.900;2022-09-12T01:49:28;21.48;;;19.27;;
11620;SDS011;5866;49.094;11.900;2022-09-12T01:52:03;18.42;;;16.00;;
11620;SDS011;5866;49.094;11.900;2022-09-12T01:54:40;17.80;;;15.15;;
11620;SDS011;5866;49.094;11.900;2022-09-12T01:57:12;49.03;;;45.53;;
11620;SDS011;5866;49.094;11.900;2022-09-12T01:59:43;42.00;;;38.92;;
11620;SDS011;5866;49.094;11.900;2022-09-12T02:02:15;44.65;;;41.17;;
11620;SDS011;5866;49.094;11.900;2022-09-12T02:04:49;27.45;;;24.70;;
11620;SDS011;5866;49.094;11.900;2022-09-12T02:07:25;53.40;;;48.17;;
11620;SDS011;5866;49.094;11.900;2022-09-12T02:10:02;55.55;;;51.08;;
11620;SDS011;5866;49.094;11.900;2022-09-12T02:12:36;67.40;;;52.05;;
11620;SDS011;5866;49.094;11.900;2022-09-12T02:15:08;54.13;;;39.65;;
11620;SDS011;5866;49.094;11.900;2022-09-12T02:17:40;79.63;;;22.97;;
11620;SDS011;5866;49.094;11.900;2022-09-12T02:20:11;75.57;;;22.02;;
11620;SDS011;5866;49.094;11.900;2022-09-12T02:23:03;34.67;;;19.48;;
11620;SDS011;5866;49.094;11.900;2022-09-12T02:25:35;62.65;;;21.15;;
11620;SDS011;5866;49.094;11.900;2022-09-12T02:28:08;33.67;;;19.88;;
11620;SDS011;5866;49.094;11.900;2022-09-12T02:30:39;26.58;;;18.05;;
11620;SDS011;5866;49.094;11.900;2022-09-12T02:33:12;97.78;;;24.70;;
11620;SDS011;5866;49.094;11.900;2022-09-12T02:35:50;320.93;;;34.87;;
11620;SDS011;5866;49.094;11.900;2022-09-12T02:38:24;200.57;;;28.00;;
11620;SDS011;5866;49.094;11.900;2022-09-12T02:40:57;321.67;;;33.63;;
11620;SDS011;5866;49.094;11.900;2022-09-12T02:43:25;452.92;;;42.05;;
11620;SDS011;5866;49.094;11.900;2022-09-12T02:45:52;536.13;;;43.00;;
11620;SDS011;5866;49.094;11.900;2022-09-12T02:48:22;153.85;;;25.77;;
11620;SDS011;5866;49.094;11.900;2022-09-12T02:50:53;64.45;;;20.98;;
11620;SDS011;5866;49.094;11.900;2022-09-12T02:53:21;54.83;;;21.63;;
11620;SDS011;5866;49.094;11.900;2022-09-12T02:55:49;106.03;;;26.67;;
11620;SDS011;5866;49.094;11.900;2022-09-12T02:58:19;69.18;;;21.92;;
11620;SDS011;5866;49.094;11.900;2022-09-12T03:00:50;56.85;;;21.30;;
11620;SDS011;5866;49.094;11.900;2022-09-12T03:03:33;118.93;;;24.17;;
11620;SDS011;5866;49.094;11.900;2022-09-12T03:06:12;53.47;;;21.38;;
11620;SDS011;5866;49.094;11.900;2022-09-12T03:08:52;161.82;;;27.50;;
11620;SDS011;5866;49.094;11.900;2022-09-12T03:11:32;443.55;;;41.00;;
11620;SDS011;5866;49.094;11.900;2022-09-12T03:14:13;449.58;;;41.50;;
11620;SDS011;5866;49.094;11.900;2022-09-12T03:16:50;485.67;;;46.47;;
11620;SDS011;5866;49.094;11.900;2022-09-12T03:19:26;34.47;;;23.48;;
11620;SDS011;5866;49.094;11.900;2022-09-12T03:22:02;58.38;;;19.00;;
11620;SDS011;5866;49.094;11.900;2022-09-12T03:24:37;69.70;;;19.35;;
11620;SDS011;5866;49.094;11.900;2022-09-12T03:27:11;93.18;;;22.70;;
11620;SDS011;5866;49.094;11.900;2022-09-12T03:29:43;36.63;;;21.25;;
11620;SDS011;5866;49.094;11.900;2022-09-12T03:32:13;30.33;;;18.65;;
11620;SDS011;5866;49.094;11.900;2022-09-12T03:34:43;28.77;;;18.25;;
11620;SDS011;5866;49.094;11.900;2022-09-12T03:37:10;27.27;;;18.63;;
11620;SDS011;5866;49.094;11.900;2022-09-12T03:39:38;37.27;;;20.67;;
11620;SDS011;5866;49.094;11.900;2022-09-12T03:42:05;28.58;;;18.40;;
11620;SDS011;5866;49.094;11.900;2022-09-12T03:44:33;29.83;;;20.00;;
11620;SDS011;5866;49.094;11.900;2022-09-12T03:47:00;32.97;;;19.63;;
11620;SDS011;5866;49.094;11.900;2022-09-12T03:49:28;46.38;;;24.92;;
11620;SDS011;5866;49.094;11.900;2022-09-12T03:51:56;59.43;;;21.23;;
11620;SDS011;5866;49.094;11.900;2022-09-12T03:54:24;76.90;;;23.03;;
11620;SDS011;5866;49.094;11.900;2022-09-12T03:56:51;130.00;;;26.80;;
11620;SDS011;5866;49.094;11.900;2022-09-12T03:59:19;335.85;;;37.42;;
11620;SDS011;5866;49.094;11.900;2022-09-12T04:01:46;141.00;;;31.50;;
11620;SDS011;5866;49.094;11.900;2022-09-12T04:04:14;299.92;;;31.98;;
11620;SDS011;5866;49.094;11.900;2022-09-12T04:06:41;51.83;;;22.02;;
11620;SDS011;5866;49.094;11.900;2022-09-12T04:09:10;34.67;;;19.23;;
11620;SDS011;5866;49.094;11.900;2022-09-12T04:11:38;40.83;;;20.43;;
11620;SDS011;5866;49.094;11.900;2022-09-12T04:14:05;41.93;;;22.73;;
11620;SDS011;5866;49.094;11.900;2022-09-12T04:16:33;373.27;;;38.25;;
11620;SDS011;5866;49.094;11.900;2022-09-12T04:19:00;552.25;;;36.08;;
11620;SDS011;5866;49.094;11.900;2022-09-12T04:21:28;35.55;;;24.40;;
11620;SDS011;5866;49.094;11.900;2022-09-12T04:23:56;32.00;;;21.97;;
11620;SDS011;5866;49.094;11.900;2022-09-12T04:26:24;30.27;;;20.43;;
11620;SDS011;5866;49.094;11.900;2022-09-12T04:28:54;28.23;;;18.43;;
11620;SDS011;5866;49.094;11.900;2022-09-12T04:31:22;31.13;;;20.02;;
11620;SDS011;5866;49.094;11.900;2022-09-12T04:33:54;26.87;;;18.03;;
11620;SDS011;5866;49.094;11.900;2022-09-12T04:36:23;31.50;;;19.03;;
11620;SDS011;5866;49.094;11.900;2022-09-12T04:38:51;24.33;;;18.33;;
11620;SDS011;5866;49.094;11.900;2022-09-12T04:41:19;30.37;;;27.10;;
11620;SDS011;5866;49.094;11.900;2022-09-12T04:43:51;44.83;;;40.93;;
11620;SDS011;5866;49.094;11.900;2022-09-12T04:46:20;40.37;;;36.47;;
11620;SDS011;5866;49.094;11.900;2022-09-12T04:48:48;38.53;;;24.03;;
11620;SDS011;5866;49.094;11.900;2022-09-12T04:51:22;42.30;;;26.23;;
11620;SDS011;5866;49.094;11.900;2022-09-12T04:53:53;60.23;;;26.93;;
11620;SDS011;5866;49.094;11.900;2022-09-12T04:56:22;90.47;;;31.00;;
11620;SDS011;5866;49.094;11.900;2022-09-12T04:58:51;137.97;;;32.57;;
11620;SDS011;5866;49.094;11.900;2022-09-12T05:01:20;294.92;;;40.38;;
11620;SDS011;5866;49.094;11.900;2022-09-12T05:03:48;326.17;;;44.70;;
11620;SDS011;5866;49.094;11.900;2022-09-12T05:06:17;374.47;;;47.80;;
11620;SDS011;5866;49.094;11.900;2022-09-12T05:08:47;211.10;;;41.07;;
11620;SDS011;5866;49.094;11.900;2022-09-12T05:11:16;263.30;;;42.07;;
11620;SDS011;5866;49.094;11.900;2022-09-12T05:13:50;147.15;;;34.25;;
11620;SDS011;5866;49.094;11.900;2022-09-12T05:16:19;283.88;;;37.90;;
11620;SDS011;5866;49.094;11.900;2022-09-12T05:18:48;305.73;;;43.67;;
11620;SDS011;5866;49.094;11.900;2022-09-12T05:21:16;283.05;;;49.50;;
11620;SDS011;5866;49.094;11.900;2022-09-12T05:23:45;280.17;;;46.60;;
11620;SDS011;5866;49.094;11.900;2022-09-12T05:26:14;234.98;;;46.92;;
11620;SDS011;5866;49.094;11.900;2022-09-12T05:28:42;238.15;;;41.92;;
11620;SDS011;5866;49.094;11.900;2022-09-12T05:31:11;143.55;;;37.33;;
11620;SDS011;5866;49.094;11.900;2022-09-12T05:33:41;301.20;;;42.22;;
11620;SDS011;5866;49.094;11.900;2022-09-12T05:36:11;133.43;;;33.55;;
11620;SDS011;5866;49.094;11.900;2022-09-12T05:38:40;138.90;;;36.35;;
11620;SDS011;5866;49.094;11.900;2022-09-12T05:41:08;154.10;;;37.10;;
11620;SDS011;5866;49.094;11.900;2022-09-12T05:43:43;94.25;;;32.08;;
11620;SDS011;5866;49.094;11.900;2022-09-12T05:46:13;136.65;;;38.22;;
11620;SDS011;5866;49.094;11.900;2022-09-12T05:48:42;134.57;;;37.20;;
11620;SDS011;5866;49.094;11.900;2022-09-12T05:51:12;108.88;;;37.20;;
11620;SDS011;5866;49.094;11.900;2022-09-12T05:53:42;68.97;;;37.72;;
11620;SDS011;5866;49.094;11.900;2022-09-12T05:56:11;76.72;;;30.67;;
11620;SDS011;5866;49.094;11.900;2022-09-12T05:58:41;68.18;;;24.70;;
11620;SDS011;5866;49.094;11.900;2022-09-12T06:01:10;37.78;;;18.60;;
11620;SDS011;5866;49.094;11.900;2022-09-12T06:03:42;35.95;;;25.67;;
11620;SDS011;5866;49.094;11.900;2022-09-12T06:06:11;32.47;;;19.33;;
11620;SDS011;5866;49.094;11.900;2022-09-12T06:08:40;28.80;;;22.58;;
11620;SDS011;5866;49.094;11.900;2022-09-12T06:11:09;57.30;;;44.47;;
11620;SDS011;5866;49.094;11.900;2022-09-12T06:13:38;38.90;;;25.17;;
11620;SDS011;5866;49.094;11.900;2022-09-12T06:16:07;49.42;;;29.52;;
11620;SDS011;5866;49.094;11.900;2022-09-12T06:18:38;56.00;;;44.55;;
11620;SDS011;5866;49.094;11.900;2022-09-12T06:21:07;87.72;;;49.08;;
11620;SDS011;5866;49.094;11.900;2022-09-12T06:23:36;99.38;;;45.78;;
11620;SDS011;5866;49.094;11.900;2022-09-12T06:26:06;100.55;;;35.35;;
11620;SDS011;5866;49.094;11.900;2022-09-12T06:28:37;85.32;;;15.02;;
11620;SDS011;5866;49.094;11.900;2022-09-12T06:31:06;95.15;;;16.95;;
11620;SDS011;5866;49.094;11.900;2022-09-12T06:33:38;78.60;;;32.70;;
11620;SDS011;5866;49.094;11.900;2022-09-12T06:36:07;94.00;;;17.27;;
11620;SDS011;5866;49.094;11.900;2022-09-12T06:38:37;85.22;;;26.38;;
11620;SDS011;5866;49.094;11.900;2022-09-12T06:41:06;75.65;;;18.23;;
11620;SDS011;5866;49.094;11.900;2022-09-12T06:43:34;62.83;;;30.52;;
11620;SDS011;5866;49.094;11.900;2022-09-12T06:46:02;68.90;;;19.95;;
11620;SDS011;5866;49.094;11.900;2022-09-12T06:48:30;47.95;;;32.90;;
11620;SDS011;5866;49.094;11.900;2022-09-12T06:51:00;45.33;;;29.23;;
11620;SDS011;5866;49.094;11.900;2022-09-12T06:53:30;65.63;;;28.40;;
11620;SDS011;5866;49.094;11.900;2022-09-12T06:55:59;33.72;;;31.10;;
11620;SDS011;5866;49.094;11.900;2022-09-12T06:58:28;28.02;;;25.38;;
11620;SDS011;5866;49.094;11.900;2022-09-12T07:00:59;34.67;;;31.17;;
11620;SDS011;5866;49.094;11.900;2022-09-12T07:03:28;48.88;;;45.00;;
11620;SDS011;5866;49.094;11.900;2022-09-12T07:05:55;32.65;;;19.10;;
11620;SDS011;5866;49.094;11.900;2022-09-12T07:08:25;68.25;;;37.35;;
11620;SDS011;5866;49.094;11.900;2022-09-12T07:10:57;43.65;;;39.50;;
11620;SDS011;5866;49.094;11.900;2022-09-12T07:13:26;47.65;;;18.98;;
11620;SDS011;5866;49.094;11.900;2022-09-12T07:15:53;71.85;;;12.57;;
11620;SDS011;5866;49.094;11.900;2022-09-12T07:18:21;80.35;;;13.30;;
11620;SDS011;5866;49.094;11.900;2022-09-12T07:20:49;87.47;;;11.88;;
11620;SDS011;5866;49.094;11.900;2022-09-12T07:23:16;130.45;;;12.88;;
11620;SDS011;5866;49.094;11.900;2022-09-12T07:25:52;28.27;;;9.63;;
11620;SDS011;5866;49.094;11.900;2022-09-12T07:28:22;119.20;;;11.25;;
11620;SDS011;5866;49.094;11.900;2022-09-12T07:30:50;47.53;;;9.57;;
11620;SDS011;5866;49.094;11.900;2022-09-12T07:33:19;26.42;;;11.52;;
11620;SDS011;5866;49.094;11.900;2022-09-12T07:35:46;15.88;;;10.98;;
11620;SDS011;5866;49.094;11.900;2022-09-12T07:38:14;11.55;;;9.63;;
11620;SDS011;5866;49.094;11.900;2022-09-12T07:40:42;19.50;;;13.02;;
11620;SDS011;5866;49.094;11.900;2022-09-12T07:43:11;16.42;;;13.15;;
11620;SDS011;5866;49.094;11.900;2022-09-12T07:45:38;17.15;;;16.05;;
11620;SDS011;5866;49.094;11.900;2022-09-12T07:48:07;14.02;;;13.00;;
11620;SDS011;5866;49.094;11.900;2022-09-12T07:50:35;8.40;;;7.57;;
11620;SDS011;5866;49.094;11.900;2022-09-12T07:53:08;8.45;;;7.95;;
11620;SDS011;5866;49.094;11.900;2022-09-12T07:55:36;8.80;;;8.30;;
11620;SDS011;5866;49.094;11.900;2022-09-12T07:58:04;14.43;;;13.52;;
11620;SDS011;5866;49.094;11.900;2022-09-12T08:00:32;22.67;;;21.42;;
11620;SDS011;5866;49.094;11.900;2022-09-12T08:03:01;15.88;;;14.98;;
11620;SDS011;5866;49.094;11.900;2022-09-12T08:05:29;47.53;;;45.00;;
11620;SDS011;5866;49.094;11.900;2022-09-12T08:07:57;34.15;;;32.20;;
11620;SDS011;5866;49.094;11.900;2022-09-12T08:10:24;45.90;;;43.38;;
11620;SDS011;5866;49.094;11.900;2022-09-12T08:12:51;46.75;;;44.25;;
11620;SDS011;5866;49.094;11.900;2022-09-12T08:15:19;48.15;;;45.65;;
11620;SDS011;5866;49.094;11.900;2022-09-12T08:17:48;39.58;;;37.45;;
11620;SDS011;5866;49.094;11.900;2022-09-12T08:20:15;30.70;;;28.95;;
11620;SDS011;5866;49.094;11.900;2022-09-12T08:22:43;24.33;;;22.90;;
11620;SDS011;5866;49.094;11.900;2022-09-12T08:25:11;12.07;;;11.43;;
11620;SDS011;5866;49.094;11.900;2022-09-12T08:27:38;13.57;;;12.88;;
11620;SDS011;5866;49.094;11.900;2022-09-12T08:30:06;13.45;;;12.52;;
11620;SDS011;5866;49.094;11.900;2022-09-12T08:32:34;25.20;;;23.85;;
11620;SDS011;5866;49.094;11.900;2022-09-12T08:35:04;17.10;;;16.17;;
11620;SDS011;5866;49.094;11.900;2022-09-12T08:37:33;9.88;;;9.07;;
11620;SDS011;5866;49.094;11.900;2022-09-12T08:40:00;12.38;;;11.68;;
11620;SDS011;5866;49.094;11.900;2022-09-12T08:42:32;23.25;;;21.98;;
11620;SDS011;5866;49.094;11.900;2022-09-12T08:45:16;11.27;;;10.68;;
11620;SDS011;5866;49.094;11.900;2022-09-12T08:47:48;18.95;;;17.95;;
11620;SDS011;5866;49.094;11.900;2022-09-12T08:50:19;24.45;;;23.10;;
11620;SDS011;5866;49.094;11.900;2022-09-12T08:52:50;20.65;;;19.55;;
11620;SDS011;5866;49.094;11.900;2022-09-12T08:55:25;24.08;;;22.77;;
11620;SDS011;5866;49.094;11.900;2022-09-12T08:57:56;23.98;;;22.67;;
11620;SDS011;5866;49.094;11.900;2022-09-12T09:00:26;17.35;;;16.40;;
11620;SDS011;5866;49.094;11.900;2022-09-12T09:03:06;21.13;;;19.85;;
11620;SDS011;5866;49.094;11.900;2022-09-12T09:05:52;36.20;;;34.22;;
11620;SDS011;5866;49.094;11.900;2022-09-12T09:08:29;28.38;;;26.73;;
11620;SDS011;5866;49.094;11.900;2022-09-12T09:11:17;29.13;;;27.45;;
11620;SDS011;5866;49.094;11.900;2022-09-12T09:13:58;12.68;;;11.95;;
11620;SDS011;5866;49.094;11.900;2022-09-12T09:16:52;22.42;;;21.17;;
11620;SDS011;5866;49.094;11.900;2022-09-12T09:19:22;24.17;;;22.77;;
11620;SDS011;5866;49.094;11.900;2022-09-12T09:21:55;25.67;;;24.25;;
11620;SDS011;5866;49.094;11.900;2022-09-12T09:24:27;24.15;;;22.75;;
11620;SDS011;5866;49.094;11.900;2022-09-12T09:27:01;15.18;;;14.27;;
11620;SDS011;5866;49.094;11.900;2022-09-12T09:29:52;24.88;;;23.35;;
11620;SDS011;5866;49.094;11.900;2022-09-12T09:32:24;27.98;;;26.30;;
11620;SDS011;5866;49.094;11.900;2022-09-12T09:34:53;21.25;;;19.98;;
11620;SDS011;5866;49.094;11.900;2022-09-12T09:37:23;18.02;;;16.98;;
11620;SDS011;5866;49.094;11.900;2022-09-12T09:40:00;16.88;;;15.90;;
11620;SDS011;5866;49.094;11.900;2022-09-12T09:42:39;60.08;;;56.85;;
11620;SDS011;5866;49.094;11.900;2022-09-12T09:45:12;46.05;;;43.42;;
11620;SDS011;5866;49.094;11.900;2022-09-12T09:47:43;33.35;;;31.33;;
11620;SDS011;5866;49.094;11.900;2022-09-12T09:50:13;30.85;;;29.05;;
11620;SDS011;5866;49.094;11.900;2022-09-12T09:52:43;47.95;;;45.20;;
11620;SDS011;5866;49.094;11.900;2022-09-12T09:55:14;55.35;;;52.33;;
11620;SDS011;5866;49.094;11.900;2022-09-12T09:57:46;32.75;;;30.63;;
11620;SDS011;5866;49.094;11.900;2022-09-12T10:00:22;40.92;;;38.47;;
11620;SDS011;5866;49.094;11.900;2022-09-12T10:02:59;38.38;;;36.20;;
11620;SDS011;5866;49.094;11.900;2022-09-12T10:05:30;45.15;;;42.65;;
11620;SDS011;5866;49.094;11.900;2022-09-12T10:08:02;38.78;;;36.72;;
11620;SDS011;5866;49.094;11.900;2022-09-12T10:10:33;20.17;;;19.02;;
11620;SDS011;5866;49.094;11.900;2022-09-12T10:13:20;33.75;;;31.90;;
11620;SDS011;5866;49.094;11.900;2022-09-12T10:15:57;23.42;;;22.05;;
11620;SDS011;5866;49.094;11.900;2022-09-12T10:18:32;37.45;;;35.40;;
11620;SDS011;5866;49.094;11.900;2022-09-12T10:21:00;36.53;;;34.58;;
11620;SDS011;5866;49.094;11.900;2022-09-12T10:23:39;21.40;;;20.15;;
11620;SDS011;5866;49.094;11.900;2022-09-12T10:26:09;13.13;;;12.32;;
11620;SDS011;5866;49.094;11.900;2022-09-12T10:28:39;21.55;;;20.30;;
11620;SDS011;5866;49.094;11.900;2022-09-12T10:31:09;29.52;;;27.77;;
11620;SDS011;5866;49.094;11.900;2022-09-12T10:33:41;26.77;;;25.27;;
11620;SDS011;5866;49.094;11.900;2022-09-12T10:36:12;27.48;;;25.92;;
11620;SDS011;5866;49.094;11.900;2022-09-12T10:38:48;34.90;;;33.00;;
11620;SDS011;5866;49.094;11.900;2022-09-12T10:41:17;25.70;;;24.30;;
11620;SDS011;5866;49.094;11.900;2022-09-12T10:43:45;33.60;;;31.70;;
11620;SDS011;5866;49.094;11.900;2022-09-12T10:46:21;26.33;;;24.85;;
11620;SDS011;5866;49.094;11.900;2022-09-12T10:48:50;35.88;;;33.67;;
11620;SDS011;5866;49.094;11.900;2022-09-12T10:51:38;36.80;;;34.67;;
11620;SDS011;5866;49.094;11.900;2022-09-12T10:54:07;27.60;;;26.05;;
11620;SDS011;5866;49.094;11.900;2022-09-12T10:56:38;29.73;;;28.02;;
11620;SDS011;5866;49.094;11.900;2022-09-12T10:59:18;22.27;;;21.00;;
11620;SDS011;5866;49.094;11.900;2022-09-12T11:01:54;13.85;;;12.95;;
11620;SDS011;5866;49.094;11.900;2022-09-12T11:04:28;16.60;;;15.63;;
11620;SDS011;5866;49.094;11.900;2022-09-12T11:07:13;15.23;;;14.27;;
11620;SDS011;5866;49.094;11.900;2022-09-12T11:09:57;21.15;;;19.98;;
11620;SDS011;5866;49.094;11.900;2022-09-12T11:12:31;19.73;;;18.52;;
11620;SDS011;5866;49.094;11.900;2022-09-12T11:15:24;9.32;;;8.73;;
11620;SDS011;5866;49.094;11.900;2022-09-12T11:18:06;18.98;;;17.88;;
11620;SDS011;5866;49.094;11.900;2022-09-12T11:20:43;23.77;;;22.48;;
11620;SDS011;5866;49.094;11.900;2022-09-12T11:23:30;8.18;;;7.57;;
11620;SDS011;5866;49.094;11.900;2022-09-12T11:26:16;14.35;;;13.40;;
11620;SDS011;5866;49.094;11.900;2022-09-12T11:28:55;18.63;;;17.20;;
11620;SDS011;5866;49.094;11.900;2022-09-12T11:31:38;13.57;;;12.65;;
11620;SDS011;5866;49.094;11.900;2022-09-12T11:34:20;23.75;;;22.15;;
11620;SDS011;5866;49.094;11.900;2022-09-12T11:37:03;12.27;;;11.48;;
11620;SDS011;5866;49.094;11.900;2022-09-12T11:39:46;17.75;;;16.67;;
11620;SDS011;5866;49.094;11.900;2022-09-12T11:42:23;21.42;;;20.25;;
11620;SDS011;5866;49.094;11.900;2022-09-12T11:44:55;20.33;;;19.00;;
11620;SDS011;5866;49.094;11.900;2022-09-12T11:47:29;22.98;;;21.60;;
11620;SDS011;5866;49.094;11.900;2022-09-12T11:50:02;14.43;;;13.60;;
11620;SDS011;5866;49.094;11.900;2022-09-12T11:52:40;15.23;;;14.32;;
11620;SDS011;5866;49.094;11.900;2022-09-12T11:55:10;20.88;;;19.50;;
11620;SDS011;5866;49.094;11.900;2022-09-12T11:57:46;18.08;;;16.88;;
11620;SDS011;5866;49.094;11.900;2022-09-12T12:00:19;17.05;;;16.00;;
11620;SDS011;5866;49.094;11.900;2022-09-12T12:02:50;17.38;;;16.27;;
11620;SDS011;5866;49.094;11.900;2022-09-12T12:05:27;12.55;;;11.85;;
11620;SDS011;5866;49.094;11.900;2022-09-12T12:08:01;19.70;;;18.48;;
11620;SDS011;5866;49.094;11.900;2022-09-12T12:10:31;16.48;;;15.57;;
11620;SDS011;5866;49.094;11.900;2022-09-12T12:13:05;19.48;;;18.27;;
11620;SDS011;5866;49.094;11.900;2022-09-12T12:15:39;16.23;;;15.25;;
11620;SDS011;5866;49.094;11.900;2022-09-12T12:18:14;14.98;;;13.98;;
11620;SDS011;5866;49.094;11.900;2022-09-12T12:20:44;16.40;;;15.40;;
11620;SDS011;5866;49.094;11.900;2022-09-12T12:23:22;15.43;;;14.52;;
11620;SDS011;5866;49.094;11.900;2022-09-12T12:25:52;14.98;;;14.07;;
11620;SDS011;5866;49.094;11.900;2022-09-12T12:31:25;16.50;;;15.25;;
11620;SDS011;5866;49.094;11.900;2022-09-12T12:34:00;20.50;;;19.20;;
11620;SDS011;5866;49.094;11.900;2022-09-12T12:36:52;17.02;;;16.02;;
11620;SDS011;5866;49.094;11.900;2022-09-12T12:51:28;16.38;;;15.27;;
11620;SDS011;5866;49.094;11.900;2022-09-12T12:54:00;18.33;;;16.80;;
11620;SDS011;5866;49.094;11.900;2022-09-12T12:56:34;19.85;;;18.65;;
11620;SDS011;5866;49.094;11.900;2022-09-12T12:59:12;14.15;;;13.30;;
11620;SDS011;5866;49.094;11.900;2022-09-12T13:01:44;18.85;;;17.75;;
11620;SDS011;5866;49.094;11.900;2022-09-12T13:04:20;15.90;;;14.93;;
11620;SDS011;5866;49.094;11.900;2022-09-12T13:06:54;16.63;;;15.65;;
11620;SDS011;5866;49.094;11.900;2022-09-12T13:09:31;14.98;;;14.07;;
11620;SDS011;5866;49.094;11.900;2022-09-12T13:12:01;21.58;;;20.27;;
11620;SDS011;5866;49.094;11.900;2022-09-12T13:14:35;20.70;;;19.42;;
11620;SDS011;5866;49.094;11.900;2022-09-12T13:17:15;17.02;;;15.98;;
11620;SDS011;5866;49.094;11.900;2022-09-12T13:19:48;17.15;;;16.15;;
11620;SDS011;5866;49.094;11.900;2022-09-12T13:22:37;10.68;;;9.88;;
11620;SDS011;5866;49.094;11.900;2022-09-12T13:25:18;15.90;;;14.90;;
11620;SDS011;5866;49.094;11.900;2022-09-12T13:30:44;16.08;;;15.07;;
11620;SDS011;5866;49.094;11.900;2022-09-12T13:33:17;18.60;;;17.45;;
11620;SDS011;5866;49.094;11.900;2022-09-12T13:35:57;12.25;;;11.50;;
11620;SDS011;5866;49.094;11.900;2022-09-12T13:38:36;13.77;;;12.82;;
11620;SDS011;5866;49.094;11.900;2022-09-12T13:41:19;15.18;;;14.10;;
11620;SDS011;5866;49.094;11.900;2022-09-12T13:43:59;14.00;;;13.13;;
11620;SDS011;5866;49.094;11.900;2022-09-12T13:46:29;20.65;;;19.23;;
11620;SDS011;5866;49.094;11.900;2022-09-12T13:48:59;14.65;;;13.60;;
11620;SDS011;5866;49.094;11.900;2022-09-12T13:51:43;16.50;;;15.30;;
11620;SDS011;5866;49.094;11.900;2022-09-12T13:54:14;16.70;;;15.68;;
11620;SDS011;5866;49.094;11.900;2022-09-12T13:56:51;17.27;;;16.27;;
11620;SDS011;5866;49.094;11.900;2022-09-12T13:59:18;19.00;;;17.83;;
11620;SDS011;5866;49.094;11.900;2022-09-12T14:01:46;19.05;;;17.95;;
11620;SDS011;5866;49.094;11.900;2022-09-12T14:04:15;17.10;;;16.08;;
11620;SDS011;5866;49.094;11.900;2022-09-12T14:07:06;19.85;;;18.58;;
11620;SDS011;5866;49.094;11.900;2022-09-12T14:09:38;18.13;;;16.92;;
11620;SDS011;5866;49.094;11.900;2022-09-12T14:12:14;19.25;;;17.92;;
11620;SDS011;5866;49.094;11.900;2022-09-12T14:14:50;17.05;;;15.98;;
11620;SDS011;5866;49.094;11.900;2022-09-12T14:17:22;20.30;;;19.13;;
11620;SDS011;5866;49.094;11.900;2022-09-12T14:19:52;19.20;;;18.08;;
11620;SDS011;5866;49.094;11.900;2022-09-12T14:22:20;18.98;;;17.77;;
11620;SDS011;5866;49.094;11.900;2022-09-12T14:24:49;16.90;;;15.88;;
11620;SDS011;5866;49.094;11.900;2022-09-12T14:27:18;19.95;;;18.75;;
11620;SDS011;5866;49.094;11.900;2022-09-12T14:29:52;19.60;;;18.40;;
11620;SDS011;5866;49.094;11.900;2022-09-12T14:32:24;17.50;;;16.45;;
11620;SDS011;5866;49.094;11.900;2022-09-12T14:35:04;19.48;;;18.27;;
11620;SDS011;5866;49.094;11.900;2022-09-12T14:37:47;21.27;;;19.95;;
11620;SDS011;5866;49.094;11.900;2022-09-12T14:40:17;19.77;;;18.67;;
11620;SDS011;5866;49.094;11.900;2022-09-12T14:42:48;17.00;;;16.02;;
11620;SDS011;5866;49.094;11.900;2022-09-12T14:45:28;21.55;;;20.25;;
11620;SDS011;5866;49.094;11.900;2022-09-12T14:47:57;19.83;;;18.63;;
11620;SDS011;5866;49.094;11.900;2022-09-12T14:50:26;19.55;;;18.42;;
11620;SDS011;5866;49.094;11.900;2022-09-12T14:53:03;19.40;;;18.05;;
11620;SDS011;5866;49.094;11.900;2022-09-12T14:55:32;19.73;;;18.55;;
11620;SDS011;5866;49.094;11.900;2022-09-12T14:58:10;18.25;;;17.23;;
11620;SDS011;5866;49.094;11.900;2022-09-12T15:00:52;19.10;;;18.08;;
11620;SDS011;5866;49.094;11.900;2022-09-12T15:03:23;19.10;;;18.00;;
11620;SDS011;5866;49.094;11.900;2022-09-12T15:05:53;20.65;;;19.45;;
11620;SDS011;5866;49.094;11.900;2022-09-12T15:08:21;18.70;;;17.60;;
11620;SDS011;5866;49.094;11.900;2022-09-12T15:10:49;16.20;;;15.10;;